createdAt,value
2022-08-30T00:01:03.811Z,68.96
2022-08-30T00:04:22.292Z,69.32
2022-08-30T00:13:14.233Z,69.28
2022-08-30T00:18:52.735Z,69.48
2022-08-30T00:21:20.553Z,69.61
2022-08-30T00:23:48.222Z,69.83
2022-08-30T00:26:15.837Z,69.79
2022-08-30T00:28:43.489Z,69.92
2022-08-30T00:31:11.299Z,69.98
2022-08-30T00:33:43.719Z,69.85
2022-08-30T00:36:11.306Z,70.00
2022-08-30T00:38:39.013Z,70.13
2022-08-30T00:41:07.076Z,69.98
2022-08-30T00:46:53.389Z,69.95
2022-08-30T00:49:21.006Z,69.98
2022-08-30T00:51:48.614Z,69.69
2022-08-30T00:54:17.165Z,69.64
2022-08-30T00:56:46.872Z,69.50
2022-08-30T00:59:15.036Z,69.34
2022-08-30T01:01:43.111Z,69.35
2022-08-30T01:04:13.707Z,69.32
2022-08-30T01:09:46.119Z,69.46
2022-08-30T01:12:14.322Z,69.58
2022-08-30T01:14:45.340Z,69.67
2022-08-30T01:17:14.551Z,69.92
2022-08-30T01:19:51.661Z,70.01
2022-08-30T01:22:37.285Z,70.39
2022-08-30T01:25:08.435Z,70.76
2022-08-30T01:27:41.719Z,70.67
2022-08-30T01:30:10.447Z,70.51
2022-08-30T01:32:45.523Z,70.73
2022-08-30T01:35:18.601Z,70.66
2022-08-30T01:37:47.548Z,70.85
2022-08-30T01:40:19.156Z,70.88
2022-08-30T01:42:46.968Z,70.87
2022-08-30T01:45:14.863Z,71.08
2022-08-30T01:47:42.528Z,71.43
2022-08-30T01:50:11.016Z,71.16
2022-08-30T01:52:38.733Z,71.45
2022-08-30T01:55:08.799Z,71.60
2022-08-30T01:57:36.862Z,71.49
2022-08-30T02:00:08.981Z,71.79
2022-08-30T02:02:39.684Z,71.69
2022-08-30T02:05:08.353Z,71.47
2022-08-30T02:07:35.889Z,71.80
2022-08-30T02:10:04.659Z,72.09
2022-08-30T02:12:32.710Z,71.90
2022-08-30T02:18:10.906Z,72.23
2022-08-30T02:20:39.878Z,72.58
2022-08-30T02:23:07.415Z,72.20
2022-08-30T02:25:35.108Z,72.24
2022-08-30T02:28:02.770Z,72.46
2022-08-30T02:30:30.430Z,72.21
2022-08-30T02:32:58.265Z,72.29
2022-08-30T02:35:26.664Z,72.68
2022-08-30T02:37:54.597Z,72.41
2022-08-30T02:40:22.522Z,72.53
2022-08-30T02:42:50.115Z,72.38
2022-08-30T02:45:18.023Z,72.32
2022-08-30T02:47:47.278Z,72.71
2022-08-30T02:50:15.411Z,72.45
2022-08-30T02:52:43.080Z,72.61
2022-08-30T02:55:16.624Z,72.67
2022-08-30T02:57:44.704Z,72.57
2022-08-30T03:00:15.423Z,72.32
2022-08-30T03:02:43.447Z,72.63
2022-08-30T03:05:13.309Z,72.66
2022-08-30T03:07:41.559Z,72.43
2022-08-30T03:10:09.880Z,72.46
2022-08-30T03:12:37.888Z,72.49
2022-08-30T03:15:06.751Z,72.56
2022-08-30T03:17:34.621Z,72.71
2022-08-30T03:20:02.341Z,72.22
2022-08-30T03:22:30.173Z,72.61
2022-08-30T03:25:01.775Z,72.53
2022-08-30T03:27:29.943Z,72.60
2022-08-30T03:29:57.581Z,72.82
2022-08-30T03:32:25.349Z,73.00
2022-08-30T03:34:52.923Z,72.87
2022-08-30T03:37:24.340Z,72.66
2022-08-30T03:39:54.039Z,72.68
2022-08-30T03:42:21.697Z,72.59
2022-08-30T03:45:18.646Z,72.95
2022-08-30T03:50:57.327Z,73.01
2022-08-30T03:53:25.784Z,73.29
2022-08-30T03:55:55.209Z,73.00
2022-08-30T03:58:25.492Z,72.89
2022-08-30T04:00:53.121Z,72.94
2022-08-30T04:03:25.987Z,72.89
2022-08-30T04:05:54.640Z,72.98
2022-08-30T04:08:23.143Z,73.06
2022-08-30T04:10:51.709Z,73.30
2022-08-30T04:19:29.395Z,73.64
2022-08-30T04:21:57.429Z,74.09
2022-08-30T04:24:25.480Z,73.78
2022-08-30T04:26:53.031Z,74.46
2022-08-30T04:29:20.591Z,74.16
2022-08-30T04:31:48.240Z,74.32
2022-08-30T04:34:15.831Z,74.11
2022-08-30T04:36:47.497Z,74.32
2022-08-30T04:39:17.560Z,73.90
2022-08-30T04:41:45.109Z,73.76
2022-08-30T04:44:14.325Z,73.73
2022-08-30T04:46:48.162Z,74.04
2022-08-30T04:49:15.832Z,73.97
2022-08-30T04:51:43.396Z,73.60
2022-08-30T04:54:10.969Z,73.64
2022-08-30T04:56:38.582Z,73.56
2022-08-30T04:59:06.538Z,73.58
2022-08-30T05:01:36.724Z,73.66
2022-08-30T05:04:14.762Z,73.58
2022-08-30T05:06:42.926Z,73.64
2022-08-30T05:09:10.449Z,73.69
2022-08-30T05:11:39.004Z,73.85
2022-08-30T05:14:06.889Z,74.02
2022-08-30T05:16:34.529Z,73.88
2022-08-30T05:19:02.213Z,74.42
2022-08-30T05:21:29.817Z,74.15
2022-08-30T05:24:00.129Z,73.98
2022-08-30T05:26:52.484Z,74.24
2022-08-30T05:29:20.735Z,74.14
2022-08-30T05:31:48.286Z,74.43
2022-08-30T05:34:16.240Z,74.24
2022-08-30T05:36:43.771Z,74.28
2022-08-30T05:39:11.404Z,74.38
2022-08-30T05:41:39.265Z,74.15
2022-08-30T05:44:09.072Z,73.92
2022-08-30T05:46:38.083Z,73.91
2022-08-30T05:49:07.364Z,73.83
2022-08-30T05:51:41.022Z,74.22
2022-08-30T05:54:13.566Z,74.23
2022-08-30T05:56:43.030Z,74.13
2022-08-30T05:59:10.915Z,74.28
2022-08-30T06:01:43.269Z,74.36
2022-08-30T06:04:12.452Z,74.18
2022-08-30T06:06:41.756Z,73.79
2022-08-30T06:09:11.017Z,73.86
2022-08-30T06:11:38.642Z,73.58
2022-08-30T06:14:06.605Z,73.76
2022-08-30T06:16:35.961Z,73.81
2022-08-30T06:19:03.614Z,73.46
2022-08-30T06:21:34.758Z,73.09
2022-08-30T06:24:05.122Z,73.32
2022-08-30T06:26:37.042Z,72.83
2022-08-30T06:29:04.799Z,72.84
2022-08-30T06:31:33.775Z,72.56
2022-08-30T06:34:01.798Z,72.63
2022-08-30T06:36:29.618Z,72.38
2022-08-30T06:38:58.475Z,72.41
2022-08-30T06:41:31.797Z,72.40
2022-08-30T06:44:02.064Z,72.38
2022-08-30T06:46:32.810Z,72.67
2022-08-30T06:49:01.428Z,72.12
2022-08-30T06:51:32.717Z,72.51
2022-08-30T06:54:04.187Z,72.00
2022-08-30T06:56:32.333Z,72.31
2022-08-30T06:59:00.002Z,72.17
2022-08-30T07:01:29.964Z,71.91
2022-08-30T07:03:59.366Z,72.26
2022-08-30T07:06:28.438Z,72.06
2022-08-30T07:08:56.705Z,71.90
2022-08-30T07:11:37.794Z,71.85
2022-08-30T07:14:06.737Z,71.80
2022-08-30T07:16:35.765Z,71.73
2022-08-30T07:19:05.415Z,71.59
2022-08-30T07:21:45.477Z,71.73
2022-08-30T07:24:13.717Z,71.67
2022-08-30T07:26:46.881Z,71.82
2022-08-30T07:29:15.298Z,71.59
2022-08-30T07:31:43.405Z,71.41
2022-08-30T07:34:11.056Z,71.30
2022-08-30T07:36:39.749Z,71.25
2022-08-30T07:39:07.878Z,71.29
2022-08-30T07:41:39.014Z,71.10
2022-08-30T07:44:08.486Z,71.31
2022-08-30T07:46:38.346Z,70.88
2022-08-30T07:49:11.088Z,70.77
2022-08-30T07:51:39.846Z,70.76
2022-08-30T07:54:08.069Z,71.27
2022-08-30T07:56:36.058Z,70.99
2022-08-30T07:59:04.151Z,71.05
2022-08-30T08:01:31.998Z,70.98
2022-08-30T08:03:59.650Z,70.67
2022-08-30T08:06:33.306Z,70.84
2022-08-30T08:09:02.568Z,70.54
2022-08-30T08:11:33.696Z,70.79
2022-08-30T08:14:03.466Z,70.56
2022-08-30T08:16:33.835Z,70.69
2022-08-30T08:19:01.744Z,70.74
2022-08-30T08:21:29.552Z,70.50
2022-08-30T08:23:57.215Z,70.30
2022-08-30T08:26:24.838Z,70.39
2022-08-30T08:28:53.968Z,70.33
2022-08-30T08:31:27.320Z,70.27
2022-08-30T08:34:04.311Z,70.70
2022-08-30T08:36:33.334Z,70.42
2022-08-30T08:39:02.724Z,70.33
2022-08-30T08:41:42.165Z,70.37
2022-08-30T08:44:39.461Z,70.54
2022-08-30T08:47:30.150Z,70.69
2022-08-30T08:50:03.155Z,70.74
2022-08-30T08:53:07.887Z,70.99
2022-08-30T08:55:38.436Z,70.92
2022-08-30T08:58:06.112Z,70.56
2022-08-30T09:00:33.793Z,70.91
2022-08-30T09:03:04.463Z,70.19
2022-08-30T09:05:37.969Z,70.17
2022-08-30T09:08:10.075Z,70.00
2022-08-30T09:10:54.184Z,69.67
2022-08-30T09:13:22.802Z,69.73
2022-08-30T09:15:54.967Z,69.54
2022-08-30T09:18:45.569Z,69.48
2022-08-30T09:21:20.598Z,69.34
2022-08-30T09:23:51.159Z,69.02
2022-08-30T09:26:35.791Z,69.29
2022-08-30T09:29:05.836Z,69.23
2022-08-30T09:31:49.105Z,69.18
2022-08-30T09:34:19.260Z,69.10
2022-08-30T09:36:50.405Z,68.82
2022-08-30T09:39:27.622Z,68.60
2022-08-30T09:42:13.182Z,68.64
2022-08-30T09:44:40.915Z,68.63
2022-08-30T09:47:24.016Z,68.57
2022-08-30T09:50:13.491Z,68.13
2022-08-30T09:53:13.432Z,67.73
2022-08-30T09:55:47.815Z,67.59
2022-08-30T09:58:33.804Z,67.55
2022-08-30T10:01:15.905Z,67.45
2022-08-30T10:04:05.927Z,67.34
2022-08-30T10:06:44.537Z,67.04
2022-08-30T10:09:30.872Z,66.75
2022-08-30T10:12:36.590Z,66.64
2022-08-30T10:15:58.452Z,66.41
2022-08-30T10:18:43.221Z,66.65
2022-08-30T10:21:19.442Z,66.37
2022-08-30T10:24:11.496Z,66.13
2022-08-30T10:26:50.588Z,65.58
2022-08-30T10:29:34.430Z,64.80
2022-08-30T10:32:10.785Z,64.66
2022-08-30T10:34:45.468Z,64.10
2022-08-30T10:37:31.921Z,63.27
2022-08-30T10:40:24.487Z,63.06
2022-08-30T10:42:56.532Z,62.72
2022-08-30T10:45:25.756Z,62.12
2022-08-30T10:48:07.028Z,61.73
2022-08-30T10:50:41.960Z,61.75
2022-08-30T10:53:19.780Z,61.23
2022-08-30T10:56:13.202Z,60.09
2022-08-30T10:58:42.896Z,60.07
2022-08-30T11:01:20.854Z,59.86
2022-08-30T11:04:14.278Z,58.87
2022-08-30T11:07:10.171Z,58.63
2022-08-30T11:09:42.927Z,58.10
2022-08-30T11:12:38.285Z,57.34
2022-08-30T11:15:21.383Z,57.48
2022-08-30T11:18:10.320Z,56.97
2022-08-30T11:20:47.313Z,57.39
2022-08-30T11:23:30.546Z,57.60
2022-08-30T11:26:07.911Z,56.84
2022-08-30T11:28:39.676Z,56.92
2022-08-30T11:31:18.726Z,56.98
2022-08-30T11:33:57.721Z,56.70
2022-08-30T11:36:37.840Z,56.91
2022-08-30T11:39:33.372Z,56.85
2022-08-30T11:42:29.570Z,57.17
2022-08-30T11:45:26.749Z,57.21
2022-08-30T11:47:59.499Z,56.99
2022-08-30T11:50:49.245Z,56.79
2022-08-30T11:53:28.145Z,56.79
2022-08-30T11:56:14.524Z,56.89
2022-08-30T11:59:04.053Z,56.80
2022-08-30T12:01:51.007Z,56.74
2022-08-30T12:04:24.756Z,56.78
2022-08-30T12:07:04.405Z,56.73
2022-08-30T12:09:35.340Z,56.45
2022-08-30T12:12:37.809Z,55.83
2022-08-30T12:15:05.831Z,55.69
2022-08-30T12:18:03.981Z,55.12
2022-08-30T12:20:38.825Z,54.63
2022-08-30T12:23:35.104Z,53.76
2022-08-30T12:26:33.585Z,52.99
2022-08-30T12:29:15.649Z,53.09
2022-08-30T12:31:46.701Z,53.05
2022-08-30T12:34:31.147Z,52.79
2022-08-30T12:37:08.978Z,53.00
2022-08-30T12:39:40.522Z,53.06
2022-08-30T12:42:18.063Z,53.53
2022-08-30T12:44:48.201Z,53.80
2022-08-30T12:47:20.068Z,54.55
2022-08-30T12:49:50.662Z,54.01
2022-08-30T12:52:38.960Z,53.89
2022-08-30T12:55:16.344Z,54.12
2022-08-30T12:58:11.373Z,54.44
2022-08-30T13:00:45.068Z,54.70
2022-08-30T13:03:30.433Z,54.89
2022-08-30T13:05:58.877Z,54.76
2022-08-30T13:08:36.946Z,54.87
2022-08-30T13:11:09.061Z,55.13
2022-08-30T13:13:44.853Z,55.07
2022-08-30T13:16:18.119Z,54.43
2022-08-30T13:18:47.210Z,54.39
2022-08-30T13:21:23.415Z,54.64
2022-08-30T13:24:03.674Z,54.26
2022-08-30T13:26:37.131Z,54.10
2022-08-30T13:29:08.811Z,54.00
2022-08-30T13:31:38.333Z,53.83
2022-08-30T13:34:06.162Z,53.56
2022-08-30T13:36:36.176Z,53.75
2022-08-30T13:39:05.998Z,53.59
2022-08-30T13:41:34.714Z,53.86
2022-08-30T13:44:13.422Z,54.15
2022-08-30T13:46:44.804Z,54.39
2022-08-30T13:52:20.272Z,54.07
2022-08-30T13:54:54.387Z,53.80
2022-08-30T14:00:19.226Z,53.37
2022-08-30T14:02:54.670Z,53.67
2022-08-30T14:11:13.035Z,54.11
2022-08-30T14:16:32.209Z,54.08
2022-08-30T14:19:00.901Z,53.95
2022-08-30T14:21:28.623Z,53.96
2022-08-30T14:23:57.848Z,53.71
2022-08-30T14:26:47.631Z,53.41
2022-08-30T14:29:26.392Z,53.42
2022-08-30T14:31:58.391Z,53.26
2022-08-30T14:34:28.002Z,53.05
2022-08-30T14:36:56.447Z,53.07
2022-08-30T14:39:24.493Z,53.67
2022-08-30T14:41:54.135Z,53.72
2022-08-30T14:44:25.056Z,53.88
2022-08-30T14:46:53.244Z,53.95
2022-08-30T14:49:21.032Z,54.20
2022-08-30T14:51:48.727Z,54.54
2022-08-30T14:54:23.743Z,55.00
2022-08-30T14:56:54.412Z,54.75
2022-08-30T14:59:23.497Z,54.76
2022-08-30T15:01:51.747Z,54.63
2022-08-30T15:04:21.472Z,55.08
2022-08-30T15:06:50.092Z,55.05
2022-08-30T15:09:23.216Z,54.90
2022-08-30T15:11:58.528Z,55.10
2022-08-30T15:14:28.214Z,54.95
2022-08-30T15:16:58.346Z,55.17
2022-08-30T15:19:26.799Z,55.44
2022-08-30T15:21:54.926Z,55.51
2022-08-30T15:24:29.351Z,55.73
2022-08-30T15:26:59.933Z,55.66
2022-08-30T15:29:28.323Z,55.63
2022-08-30T15:32:00.233Z,55.54
2022-08-30T15:34:28.629Z,55.29
2022-08-30T15:36:57.688Z,55.28
2022-08-30T15:39:25.657Z,55.31
2022-08-30T15:41:59.931Z,55.22
2022-08-30T15:44:34.351Z,55.06
2022-08-30T15:47:02.844Z,55.03
2022-08-30T15:49:30.869Z,54.73
2022-08-30T15:52:03.931Z,54.85
2022-08-30T15:54:32.257Z,54.75
2022-08-30T15:57:00.051Z,55.00
2022-08-30T15:59:30.160Z,55.09
2022-08-30T16:01:58.149Z,54.73
2022-08-30T16:04:25.895Z,54.76
2022-08-30T16:06:53.809Z,54.66
2022-08-30T16:09:22.269Z,54.41
2022-08-30T16:11:50.194Z,54.45
2022-08-30T16:14:18.327Z,54.30
2022-08-30T16:16:46.605Z,54.66
2022-08-30T16:19:14.466Z,54.73
2022-08-30T16:21:43.426Z,54.98
2022-08-30T16:24:13.698Z,55.16
2022-08-30T16:26:57.466Z,55.14
2022-08-30T16:29:25.232Z,55.42
2022-08-30T16:31:54.044Z,55.21
2022-08-30T16:34:22.102Z,55.34
2022-08-30T16:36:49.876Z,55.58
2022-08-30T16:39:18.114Z,55.36
2022-08-30T16:41:46.600Z,55.13
2022-08-30T16:44:15.514Z,55.26
2022-08-30T16:46:52.463Z,55.18
2022-08-30T16:49:23.301Z,55.10
2022-08-30T16:51:53.171Z,54.97
2022-08-30T16:54:21.389Z,54.89
2022-08-30T16:56:49.208Z,55.15
2022-08-30T16:59:17.028Z,55.24
2022-08-30T17:01:45.110Z,55.22
2022-08-30T17:04:15.916Z,55.09
2022-08-30T17:06:47.988Z,55.29
2022-08-30T17:09:18.423Z,55.11
2022-08-30T17:11:47.558Z,55.21
2022-08-30T17:14:20.115Z,55.49
2022-08-30T17:16:51.325Z,55.34
2022-08-30T17:19:18.935Z,55.10
2022-08-30T17:21:55.066Z,55.23
2022-08-30T17:24:22.656Z,55.20
2022-08-30T17:26:52.606Z,55.43
2022-08-30T17:29:21.757Z,55.61
2022-08-30T17:31:51.512Z,55.52
2022-08-30T17:34:22.140Z,55.58
2022-08-30T17:36:51.596Z,55.71
2022-08-30T17:39:19.357Z,55.41
2022-08-30T17:41:50.494Z,55.85
2022-08-30T17:44:28.752Z,55.67
2022-08-30T17:46:57.856Z,55.86
2022-08-30T17:49:27.395Z,55.96
2022-08-30T17:51:56.955Z,56.00
2022-08-30T17:54:26.732Z,56.23
2022-08-30T17:56:55.329Z,56.37
2022-08-30T17:59:25.088Z,56.59
2022-08-30T18:01:55.169Z,56.78
2022-08-30T18:04:24.991Z,56.72
2022-08-30T18:06:54.178Z,56.79
2022-08-30T18:09:22.721Z,56.80
2022-08-30T18:11:51.225Z,56.82
2022-08-30T18:14:19.046Z,56.64
2022-08-30T18:16:50.228Z,56.70
2022-08-30T18:19:26.632Z,57.32
2022-08-30T18:21:55.705Z,57.07
2022-08-30T18:24:24.442Z,57.05
2022-08-30T18:26:54.838Z,57.26
2022-08-30T18:29:29.426Z,57.35
2022-08-30T18:32:04.134Z,57.36
2022-08-30T18:34:32.024Z,57.52
2022-08-30T18:37:01.182Z,57.57
2022-08-30T18:39:34.617Z,57.25
2022-08-30T18:42:04.451Z,57.47
2022-08-30T18:44:33.240Z,57.51
2022-08-30T18:47:05.623Z,57.80
2022-08-30T18:49:36.424Z,58.10
2022-08-30T18:52:07.682Z,57.83
2022-08-30T18:54:42.764Z,57.99
2022-08-30T18:57:13.726Z,57.90
2022-08-30T18:59:41.893Z,57.88
2022-08-30T19:02:13.412Z,57.95
2022-08-30T19:04:42.862Z,57.70
2022-08-30T19:07:12.852Z,57.47
2022-08-30T19:09:43.141Z,57.72
2022-08-30T19:12:11.416Z,57.38
2022-08-30T19:14:40.249Z,57.75
2022-08-30T19:17:08.067Z,57.45
2022-08-30T19:19:48.339Z,57.42
2022-08-30T19:22:26.818Z,57.47
2022-08-30T19:25:13.457Z,57.35
2022-08-30T19:27:41.690Z,57.43
2022-08-30T19:30:20.114Z,57.13
2022-08-30T19:32:51.189Z,57.00
2022-08-30T19:35:19.934Z,57.05
2022-08-30T19:37:47.585Z,56.95
2022-08-30T19:40:17.624Z,56.79
2022-08-30T19:42:46.676Z,56.68
2022-08-30T19:45:18.325Z,56.64
2022-08-30T19:47:46.673Z,56.96
2022-08-30T19:50:15.916Z,56.85
2022-08-30T19:52:45.634Z,56.61
2022-08-30T19:55:16.385Z,56.83
2022-08-30T19:57:44.423Z,56.57
2022-08-30T20:00:13.905Z,56.88
2022-08-30T20:02:44.563Z,56.44
2022-08-30T20:05:18.498Z,56.64
2022-08-30T20:07:46.395Z,56.93
2022-08-30T20:10:20.758Z,56.77
2022-08-30T20:15:40.188Z,57.21
2022-08-30T20:18:14.076Z,56.95
2022-08-30T20:20:48.550Z,56.90
2022-08-30T20:23:21.845Z,56.87
2022-08-30T20:25:53.129Z,56.87
2022-08-30T20:28:21.168Z,56.56
2022-08-30T20:30:49.842Z,56.88
2022-08-30T20:33:21.857Z,56.63
2022-08-30T20:35:50.116Z,56.51
2022-08-30T20:38:23.930Z,56.28
2022-08-30T20:40:54.770Z,56.55
2022-08-30T20:43:25.239Z,57.03
2022-08-30T20:45:53.586Z,56.77
2022-08-30T20:48:22.915Z,57.04
2022-08-30T20:50:50.590Z,56.98
2022-08-30T20:53:18.226Z,56.76
2022-08-30T20:55:47.643Z,57.31
2022-08-30T20:58:15.415Z,57.02
2022-08-30T21:00:46.061Z,57.18
2022-08-30T21:03:26.563Z,57.13
2022-08-30T21:05:55.519Z,57.19
2022-08-30T21:08:23.192Z,57.40
2022-08-30T21:10:52.921Z,57.50
2022-08-30T21:13:21.152Z,57.37
2022-08-30T21:15:58.330Z,57.82
2022-08-30T21:18:33.169Z,57.63
2022-08-30T21:21:09.026Z,57.74
2022-08-30T21:23:38.493Z,58.02
2022-08-30T21:26:07.629Z,57.97
2022-08-30T21:28:35.458Z,58.01
2022-08-30T21:31:07.743Z,58.42
2022-08-30T21:33:35.806Z,58.38
2022-08-30T21:36:23.763Z,58.15
2022-08-30T21:38:57.428Z,58.67
2022-08-30T21:41:27.742Z,58.67
2022-08-30T21:44:00.122Z,58.56
2022-08-30T21:46:30.672Z,59.00
2022-08-30T21:49:01.618Z,59.12
2022-08-30T21:51:32.176Z,59.13
2022-08-30T21:54:01.174Z,59.40
2022-08-30T21:56:29.417Z,59.07
2022-08-30T21:58:57.234Z,59.36
2022-08-30T22:01:28.074Z,59.72
2022-08-30T22:03:59.373Z,59.73
2022-08-30T22:06:51.883Z,59.93
2022-08-30T22:09:23.357Z,60.21
2022-08-30T22:11:52.125Z,60.03
2022-08-30T22:14:20.396Z,60.13
2022-08-30T22:18:02.633Z,60.34
2022-08-30T22:20:30.384Z,60.26
2022-08-30T22:22:58.558Z,60.49
2022-08-30T22:25:26.688Z,60.55
2022-08-30T22:27:54.343Z,60.87
2022-08-30T22:30:21.965Z,60.77
2022-08-30T22:32:50.299Z,60.81
2022-08-30T22:35:20.406Z,60.70
2022-08-30T22:37:53.017Z,60.90
2022-08-30T22:40:21.466Z,61.02
2022-08-30T22:42:49.331Z,61.38
2022-08-30T22:45:17.095Z,61.55
2022-08-30T22:47:44.757Z,61.03
2022-08-30T22:50:13.633Z,61.09
2022-08-30T22:52:41.249Z,61.05
2022-08-30T22:55:09.140Z,60.77
2022-08-30T22:57:38.367Z,61.06
2022-08-30T23:00:11.771Z,61.29
2022-08-30T23:02:39.607Z,61.08
2022-08-30T23:05:07.607Z,61.15
2022-08-30T23:07:35.580Z,60.99
2022-08-30T23:10:05.416Z,60.90
2022-08-30T23:12:36.908Z,60.99
2022-08-30T23:15:11.301Z,60.96
2022-08-30T23:17:39.797Z,61.30
2022-08-30T23:20:08.428Z,60.86
2022-08-30T23:22:36.428Z,60.74
2022-08-30T23:25:22.997Z,61.22
2022-08-30T23:28:12.295Z,61.48
2022-08-30T23:31:07.281Z,61.43
2022-08-30T23:33:53.498Z,61.34
2022-08-30T23:36:39.805Z,61.79
2022-08-30T23:39:26.956Z,61.64
2022-08-30T23:42:13.278Z,62.04
2022-08-30T23:44:59.684Z,62.22
2022-08-30T23:47:45.715Z,61.81
2022-08-30T23:50:32.686Z,62.18
2022-08-30T23:53:18.938Z,62.20
2022-08-30T23:56:05.291Z,62.23
2022-08-30T23:58:52.631Z,62.27
